Time;durP1;ratioP1;P1;durP2;ratioP2;P2;SDS_P1;SDS_P2;PMS_P1;PMS_P2;Temp;Humidity;BMP_temperature;BMP_pressure;BME280_temperature;BME280_humidity;BME280_pressure;Samples;Min_cycle;Max_cycle;Signal;HPM_P1;HPM_P2
2022/12/04 00:01:10;;;;;;;4.38;1.10;;;24.60;59.10;;;;;;4180310;28;20549;-39
2022/12/04 00:03:33;;;;;;;5.72;1.40;;;24.60;58.80;;;;;;4179631;28;20068;-37
2022/12/04 00:06:07;;;;;;;4.07;1.60;;;24.60;58.30;;;;;;4179346;28;20037;-39
2022/12/04 00:08:30;;;;;;;5.50;2.03;;;24.60;57.80;;;;;;4180543;28;20055;-38
2022/12/04 00:10:53;;;;;;;5.90;1.58;;;24.70;57.50;;;;;;4181980;28;20500;-38
2022/12/04 00:13:15;;;;;;;8.27;1.55;;;24.70;57.60;;;;;;4185184;28;20040;-40
2022/12/04 00:15:42;;;;;;;7.10;1.38;;;24.70;57.30;;;;;;4172487;28;20059;-41
2022/12/04 00:18:04;;;;;;;5.32;1.42;;;24.80;57.10;;;;;;4178417;28;20640;-38
2022/12/04 00:20:27;;;;;;;6.47;1.08;;;24.80;57.00;;;;;;4179836;28;20510;-39
2022/12/04 00:22:49;;;;;;;5.25;1.25;;;24.80;56.80;;;;;;4178377;28;20040;-41
2022/12/04 00:25:12;;;;;;;2.58;1.02;;;24.80;56.30;;;;;;4174899;28;20037;-39
2022/12/04 00:27:34;;;;;;;3.53;1.10;;;24.80;56.00;;;;;;4182049;28;20024;-39
2022/12/04 00:29:57;;;;;;;2.15;1.10;;;24.80;55.90;;;;;;4181061;28;20048;-40
2022/12/04 00:32:19;;;;;;;3.70;1.00;;;24.80;55.90;;;;;;4185309;28;20040;-39
2022/12/04 00:34:42;;;;;;;3.42;1.13;;;24.80;55.80;;;;;;4178717;28;20049;-39
2022/12/04 00:37:05;;;;;;;2.53;1.17;;;24.80;55.70;;;;;;4180442;28;20036;-39
2022/12/04 00:39:27;;;;;;;2.58;1.02;;;24.80;56.30;;;;;;4183283;28;20128;-38
2022/12/04 00:41:50;;;;;;;3.47;1.25;;;24.80;55.60;;;;;;4180723;28;20068;-39
2022/12/04 00:44:12;;;;;;;1.80;1.00;;;24.80;55.60;;;;;;4170157;28;20091;-38
2022/12/04 00:46:35;;;;;;;1.80;0.93;;;24.80;55.60;;;;;;4188297;28;20032;-39
2022/12/04 00:49:00;;;;;;;1.50;0.80;;;24.80;55.60;;;;;;4182893;28;20047;-38
2022/12/04 00:51:25;;;;;;;1.60;0.90;;;24.80;55.60;;;;;;4193715;28;20122;-38
2022/12/04 00:53:47;;;;;;;2.58;0.90;;;24.80;55.60;;;;;;4193457;28;20335;-37
2022/12/04 00:56:13;;;;;;;1.95;0.82;;;24.80;55.50;;;;;;4183566;28;20106;-42
2022/12/04 00:58:36;;;;;;;1.92;0.85;;;24.80;55.60;;;;;;4187960;28;20039;-42
2022/12/04 01:01:08;;;;;;;2.93;1.17;;;24.80;55.50;;;;;;4184848;28;20044;-38
2022/12/04 01:03:30;;;;;;;1.45;0.82;;;24.80;55.40;;;;;;4183249;28;20036;-42
2022/12/04 01:05:53;;;;;;;1.55;0.77;;;24.80;55.40;;;;;;4180452;28;20048;-41
2022/12/04 01:08:15;;;;;;;1.75;0.88;;;24.80;55.40;;;;;;4182675;28;20101;-38
2022/12/04 01:10:39;;;;;;;1.77;0.98;;;24.90;55.40;;;;;;4185595;28;20052;-39
2022/12/04 01:13:02;;;;;;;0.98;0.60;;;24.90;55.40;;;;;;4164606;28;20102;-39
2022/12/04 01:15:25;;;;;;;1.10;0.70;;;24.90;55.30;;;;;;4179235;28;20376;-41
2022/12/04 01:17:47;;;;;;;1.42;0.77;;;24.80;55.40;;;;;;4183937;28;20059;-39
2022/12/04 01:20:15;;;;;;;1.25;0.57;;;24.90;55.30;;;;;;4183934;28;20070;-39
2022/12/04 01:22:38;;;;;;;0.77;0.68;;;24.80;55.20;;;;;;4180843;28;20024;-40
2022/12/04 01:25:00;;;;;;;1.63;0.60;;;24.90;55.40;;;;;;4183430;28;20044;-38
2022/12/04 01:27:23;;;;;;;0.90;0.60;;;24.90;55.30;;;;;;4189296;28;20028;-41
2022/12/04 01:29:46;;;;;;;0.80;0.60;;;24.90;55.30;;;;;;4182451;28;20075;-41
2022/12/04 01:32:08;;;;;;;1.90;0.52;;;24.90;55.30;;;;;;4180795;28;20032;-39
2022/12/04 01:34:31;;;;;;;0.65;0.47;;;24.90;55.20;;;;;;4181009;28;20040;-39
2022/12/04 01:36:54;;;;;;;1.42;0.70;;;24.90;55.30;;;;;;4180982;28;20662;-39
2022/12/04 01:39:16;;;;;;;1.60;0.70;;;24.90;55.30;;;;;;4180810;28;20040;-40
2022/12/04 01:41:39;;;;;;;1.63;0.82;;;24.90;55.20;;;;;;4177964;28;20059;-40
2022/12/04 01:44:22;;;;;;;2.00;0.70;;;24.90;55.20;;;;;;4183932;28;20047;-40
2022/12/04 01:46:53;;;;;;;1.33;0.70;;;24.90;55.30;;;;;;4182372;28;20565;-42
2022/12/04 01:49:44;;;;;;;1.90;0.60;;;24.90;55.20;;;;;;4183710;28;20109;-41
2022/12/04 01:52:17;;;;;;;1.67;0.63;;;25.00;55.30;;;;;;4183388;28;20516;-42
2022/12/04 01:54:44;;;;;;;1.50;0.80;;;25.00;55.30;;;;;;4183146;28;20036;-41
2022/12/04 01:57:17;;;;;;;0.80;0.60;;;25.00;55.20;;;;;;4163605;28;20041;-42
2022/12/04 01:59:54;;;;;;;1.25;0.55;;;25.00;55.20;;;;;;4166953;28;20040;-45
2022/12/04 02:02:22;;;;;;;0.95;0.55;;;25.00;55.30;;;;;;4182745;28;20035;-41
2022/12/04 02:04:45;;;;;;;1.02;0.50;;;25.00;55.20;;;;;;4182536;28;20044;-44
2022/12/04 02:07:09;;;;;;;1.38;0.60;;;25.10;55.30;;;;;;4177933;28;20047;-44
2022/12/04 02:09:33;;;;;;;0.45;0.45;;;25.10;55.20;;;;;;4180757;28;20044;-38
2022/12/04 02:12:20;;;;;;;0.98;0.55;;;25.10;55.20;;;;;;4183664;28;20519;-42
2022/12/04 02:14:49;;;;;;;1.45;0.60;;;25.10;55.20;;;;;;4178915;28;20048;-39
2022/12/04 02:17:19;;;;;;;1.77;0.82;;;25.10;55.10;;;;;;4180193;28;20033;-39
2022/12/04 02:20:01;;;;;;;0.93;0.40;;;25.10;55.20;;;;;;4181826;28;20036;-41
2022/12/04 02:22:34;;;;;;;1.10;0.50;;;25.20;55.10;;;;;;4181731;28;20044;-41
2022/12/04 02:24:59;;;;;;;1.65;0.70;;;25.10;55.00;;;;;;4180369;28;20043;-40
2022/12/04 02:27:39;;;;;;;0.77;0.68;;;25.10;55.10;;;;;;4170142;28;20036;-39
2022/12/04 02:30:08;;;;;;;1.58;0.60;;;25.20;55.10;;;;;;4182499;28;20099;-40
2022/12/04 02:33:00;;;;;;;1.60;0.60;;;25.20;55.00;;;;;;4181148;28;20044;-44
2022/12/04 02:35:46;;;;;;;0.82;0.50;;;25.20;55.00;;;;;;4183455;28;20040;-40
2022/12/04 02:38:32;;;;;;;1.15;0.63;;;25.20;55.00;;;;;;4170272;28;20037;-40
2022/12/04 02:41:18;;;;;;;1.95;0.55;;;25.20;54.90;;;;;;4173115;28;20040;-39
2022/12/04 02:43:55;;;;;;;1.13;0.50;;;25.30;55.00;;;;;;4171350;28;20124;-38
2022/12/04 02:46:42;;;;;;;0.60;0.55;;;25.30;54.90;;;;;;4174390;28;20040;-40
2022/12/04 02:49:11;;;;;;;1.45;0.77;;;25.30;54.90;;;;;;4171977;28;20535;-43
2022/12/04 02:51:37;;;;;;;2.67;0.88;;;25.30;54.80;;;;;;4179798;28;20044;-41
2022/12/04 02:54:10;;;;;;;1.02;0.60;;;25.30;54.80;;;;;;4180712;28;20089;-41
2022/12/04 02:56:37;;;;;;;1.73;0.90;;;25.40;54.90;;;;;;4176152;28;20033;-40
2022/12/04 02:59:07;;;;;;;2.83;0.90;;;25.40;54.80;;;;;;4175736;28;20510;-39
2022/12/04 03:01:41;;;;;;;1.45;0.70;;;25.40;54.70;;;;;;4174613;28;20036;-42
2022/12/04 03:04:12;;;;;;;2.03;0.70;;;25.40;54.70;;;;;;4178038;28;20032;-40
2022/12/04 03:06:39;;;;;;;0.88;0.43;;;25.40;54.60;;;;;;4183973;28;20050;-44
2022/12/04 03:09:23;;;;;;;1.08;0.57;;;25.40;54.60;;;;;;4185299;28;20419;-40
2022/12/04 03:11:53;;;;;;;1.38;0.68;;;25.50;54.70;;;;;;4176379;28;20122;-41
2022/12/04 03:14:34;;;;;;;0.95;0.50;;;25.50;54.60;;;;;;4178886;28;20622;-42
2022/12/04 03:17:07;;;;;;;0.77;0.52;;;25.50;54.60;;;;;;4182010;28;20033;-38
2022/12/04 03:19:47;;;;;;;1.17;0.80;;;25.50;54.50;;;;;;4179518;28;20504;-41
2022/12/04 03:22:17;;;;;;;1.33;0.52;;;25.60;54.50;;;;;;4181322;28;20090;-40
2022/12/04 03:24:47;;;;;;;0.90;0.80;;;25.60;54.50;;;;;;4183888;28;20074;-39
2022/12/04 03:27:18;;;;;;;1.33;0.70;;;25.60;54.50;;;;;;4179939;28;20049;-43
2022/12/04 03:29:47;;;;;;;0.65;0.47;;;25.60;54.50;;;;;;4180586;28;20054;-42
2022/12/04 03:32:24;;;;;;;1.65;1.00;;;25.60;54.50;;;;;;4180651;28;20039;-43
2022/12/04 03:34:56;;;;;;;0.90;0.50;;;25.70;54.60;;;;;;4179327;28;20519;-39
2022/12/04 03:37:27;;;;;;;1.77;0.60;;;25.70;54.40;;;;;;4177135;28;20127;-42
2022/12/04 03:39:56;;;;;;;1.10;0.40;;;25.70;54.30;;;;;;4180805;28;20117;-45
2022/12/04 03:42:26;;;;;;;1.05;0.70;;;25.70;54.30;;;;;;4179248;28;20182;-40
2022/12/04 03:45:21;;;;;;;1.15;0.60;;;25.70;54.30;;;;;;4169627;28;20041;-43
2022/12/04 03:47:57;;;;;;;0.50;0.38;;;25.80;54.20;;;;;;4181708;28;20044;-40
2022/12/04 03:50:28;;;;;;;0.85;0.47;;;25.80;54.20;;;;;;4182044;28;20032;-48
2022/12/04 03:53:11;;;;;;;1.40;0.80;;;25.80;54.30;;;;;;4182991;28;20454;-43
2022/12/04 03:55:57;;;;;;;0.70;0.45;;;25.90;54.30;;;;;;4177777;28;20088;-41
2022/12/04 03:58:25;;;;;;;1.10;0.45;;;25.90;54.00;;;;;;4175597;28;20040;-39
2022/12/04 04:00:50;;;;;;;1.02;0.73;;;25.90;54.00;;;;;;4184728;28;20316;-44
2022/12/04 04:03:29;;;;;;;1.08;0.55;;;25.90;53.90;;;;;;4181722;28;20143;-44
2022/12/04 04:05:57;;;;;;;0.77;0.50;;;26.00;53.90;;;;;;4170821;28;20135;-44
2022/12/04 04:08:25;;;;;;;1.65;0.60;;;26.10;53.80;;;;;;4174676;28;20398;-42
2022/12/04 04:10:50;;;;;;;1.02;0.57;;;26.10;53.70;;;;;;4172422;28;20085;-42
2022/12/04 04:24:21;;;;;;;1.33;0.70;;;26.30;53.10;;;;;;4173082;28;20042;-41
2022/12/04 04:26:46;;;;;;;0.73;0.53;;;26.40;53.00;;;;;;4174950;28;20610;-40
2022/12/04 04:29:09;;;;;;;1.25;0.73;;;26.50;52.90;;;;;;4173468;28;20307;-40
2022/12/04 04:31:41;;;;;;;1.45;0.60;;;26.50;52.80;;;;;;4178202;28;20041;-46
2022/12/04 04:34:28;;;;;;;0.45;0.45;;;26.60;52.80;;;;;;4175018;28;20040;-45
2022/12/04 04:37:11;;;;;;;1.13;0.65;;;26.60;52.70;;;;;;4176112;28;20028;-42
2022/12/04 04:39:39;;;;;;;0.83;0.50;;;26.70;52.50;;;;;;4178673;28;20040;-41
2022/12/04 04:42:21;;;;;;;1.35;0.60;;;26.80;52.40;;;;;;4170610;28;20539;-45
2022/12/04 04:45:13;;;;;;;2.08;0.68;;;26.80;52.30;;;;;;4175225;28;20040;-41
2022/12/04 04:47:48;;;;;;;1.98;0.68;;;26.90;52.20;;;;;;4177969;28;20041;-42
2022/12/04 04:50:12;;;;;;;0.50;0.40;;;27.00;52.10;;;;;;4176132;28;20041;-39
2022/12/04 04:52:37;;;;;;;1.25;0.68;;;27.00;52.00;;;;;;4182920;28;20188;-43
2022/12/04 04:55:01;;;;;;;0.75;0.47;;;27.10;51.90;;;;;;4176202;28;20040;-44
2022/12/04 04:57:34;;;;;;;0.50;0.50;;;27.10;51.80;;;;;;4178905;28;20037;-39
2022/12/04 04:59:57;;;;;;;0.93;0.50;;;27.20;51.70;;;;;;4178616;28;20359;-41
2022/12/04 05:02:20;;;;;;;0.98;0.70;;;27.30;51.70;;;;;;4163909;28;20090;-40
2022/12/04 05:04:42;;;;;;;0.93;0.50;;;27.30;51.70;;;;;;4178221;28;20112;-39
2022/12/04 05:07:05;;;;;;;0.65;0.60;;;27.40;51.50;;;;;;4185954;28;20049;-39
2022/12/04 05:09:27;;;;;;;1.15;0.63;;;27.40;51.40;;;;;;4183778;28;20040;-41
2022/12/04 05:11:50;;;;;;;0.68;0.57;;;27.50;51.30;;;;;;4188240;28;20089;-39
2022/12/04 05:14:12;;;;;;;1.05;0.60;;;27.60;51.30;;;;;;4177301;28;20033;-39
2022/12/04 05:16:35;;;;;;;1.10;0.60;;;27.60;51.10;;;;;;4177695;28;20036;-42
2022/12/04 05:21:40;;;;;;;0.82;0.60;;;27.70;51.00;;;;;;4178327;28;20682;-42
2022/12/04 05:24:03;;;;;;;1.70;0.73;;;27.80;50.90;;;;;;4174926;28;20041;-41
2022/12/04 05:26:25;;;;;;;1.55;0.63;;;27.90;50.90;;;;;;4177960;28;20519;-48
2022/12/04 05:28:48;;;;;;;1.30;0.73;;;27.90;50.80;;;;;;4182377;28;20511;-40
2022/12/04 05:31:10;;;;;;;2.00;0.65;;;28.00;50.70;;;;;;4177883;28;20036;-42
2022/12/04 05:33:33;;;;;;;1.52;0.60;;;28.00;50.60;;;;;;4183331;28;20539;-43
2022/12/04 05:36:04;;;;;;;1.10;0.60;;;28.10;50.50;;;;;;4180993;28;20032;-42
2022/12/04 05:38:27;;;;;;;1.77;0.70;;;28.20;51.00;;;;;;4174207;28;20537;-44
2022/12/04 05:40:50;;;;;;;1.13;0.60;;;28.20;50.30;;;;;;4177380;28;20040;-41
2022/12/04 05:43:12;;;;;;;0.80;0.55;;;28.30;50.30;;;;;;4175987;28;20074;-43
2022/12/04 05:45:35;;;;;;;1.40;0.60;;;28.40;50.20;;;;;;4179638;28;20105;-44
2022/12/04 05:47:57;;;;;;;1.42;0.60;;;28.40;50.10;;;;;;4176476;28;20591;-46
2022/12/04 05:50:20;;;;;;;0.95;0.50;;;28.50;50.10;;;;;;4185129;28;20123;-40
2022/12/04 05:52:42;;;;;;;1.13;0.68;;;28.50;50.00;;;;;;4182122;28;20446;-43
2022/12/04 05:55:06;;;;;;;0.65;0.45;;;28.60;49.90;;;;;;4168763;28;20040;-43
2022/12/04 05:57:28;;;;;;;1.05;0.70;;;28.70;49.80;;;;;;4176476;28;20033;-42
2022/12/04 05:59:51;;;;;;;0.82;0.40;;;28.70;49.70;;;;;;4175577;28;20029;-45
2022/12/04 06:02:14;;;;;;;1.77;0.65;;;28.80;49.70;;;;;;4176308;28;20047;-46
2022/12/04 06:04:37;;;;;;;1.38;0.40;;;28.80;49.60;;;;;;4173543;28;20124;-41
2022/12/04 06:06:59;;;;;;;0.73;0.40;;;28.90;49.50;;;;;;4176708;28;20056;-42
2022/12/04 06:09:22;;;;;;;0.80;0.60;;;28.90;49.50;;;;;;4172850;28;20048;-41
2022/12/04 06:11:44;;;;;;;1.15;0.35;;;28.90;49.40;;;;;;4177273;28;20547;-44
2022/12/04 06:14:10;;;;;;;1.20;0.70;;;29.00;50.00;;;;;;4175008;28;20040;-43
2022/12/04 06:16:38;;;;;;;0.93;0.70;;;29.00;49.20;;;;;;4181884;28;20071;-39
2022/12/04 06:19:06;;;;;;;1.55;0.50;;;29.10;49.20;;;;;;4178585;28;20060;-47
2022/12/04 06:21:30;;;;;;;1.63;0.65;;;29.10;49.10;;;;;;4180168;28;20056;-42
2022/12/04 06:23:53;;;;;;;1.13;0.50;;;29.10;49.00;;;;;;4179732;28;20258;-42
2022/12/04 06:26:16;;;;;;;1.70;0.50;;;29.10;48.90;;;;;;4182416;28;20047;-44
2022/12/04 06:28:39;;;;;;;1.13;0.50;;;29.20;49.00;;;;;;4174695;28;20055;-44
2022/12/04 06:31:07;;;;;;;1.40;0.70;;;29.20;48.90;;;;;;4177041;28;20292;-45
2022/12/04 06:33:29;;;;;;;0.57;0.40;;;29.30;48.80;;;;;;4175074;28;20035;-45
2022/12/04 06:36:05;;;;;;;0.40;0.30;;;29.30;48.80;;;;;;4172518;28;20060;-45
2022/12/04 06:38:28;;;;;;;0.82;0.50;;;29.30;48.80;;;;;;4161389;28;20096;-42
2022/12/04 06:40:50;;;;;;;1.52;0.70;;;29.30;48.70;;;;;;4186129;28;20047;-40
2022/12/04 06:43:13;;;;;;;1.48;0.70;;;29.30;48.80;;;;;;4177963;28;20352;-43
2022/12/04 06:45:36;;;;;;;0.52;0.30;;;29.30;48.70;;;;;;4173449;28;20399;-40
2022/12/04 06:47:58;;;;;;;0.95;0.52;;;29.30;48.70;;;;;;4181647;28;20036;-42
2022/12/04 06:50:21;;;;;;;1.15;0.50;;;29.30;48.70;;;;;;4182805;28;20036;-42
2022/12/04 06:52:43;;;;;;;0.40;0.32;;;29.30;48.70;;;;;;4178845;28;20035;-43
2022/12/04 06:55:06;;;;;;;0.70;0.35;;;29.30;48.70;;;;;;4174117;28;20040;-41
2022/12/04 06:57:29;;;;;;;1.98;0.52;;;29.30;48.70;;;;;;4175240;28;20036;-44
2022/12/04 06:59:51;;;;;;;0.50;0.38;;;29.30;48.70;;;;;;4173982;28;20037;-41
2022/12/04 07:02:14;;;;;;;1.25;0.38;;;29.30;48.70;;;;;;4174606;28;20037;-42
2022/12/04 07:04:36;;;;;;;0.43;0.32;;;29.30;48.70;;;;;;4174971;28;20048;-40
2022/12/04 07:06:59;;;;;;;1.45;0.52;;;29.20;48.70;;;;;;4168795;28;20059;-40
2022/12/04 07:09:22;;;;;;;1.80;0.50;;;29.20;48.80;;;;;;4169948;28;20055;-42
2022/12/04 07:11:45;;;;;;;0.63;0.40;;;29.20;48.80;;;;;;4174938;28;20074;-41
2022/12/04 07:14:09;;;;;;;1.35;0.50;;;29.10;48.90;;;;;;4173215;28;20472;-40
2022/12/04 07:16:32;;;;;;;1.52;0.57;;;29.10;49.10;;;;;;4172482;28;20411;-43
2022/12/04 07:18:58;;;;;;;1.23;0.55;;;29.00;49.00;;;;;;4175781;28;20049;-39
2022/12/04 07:21:24;;;;;;;1.00;0.30;;;29.00;49.20;;;;;;4169896;28;20037;-38
2022/12/04 07:23:53;;;;;;;0.50;0.40;;;29.00;49.30;;;;;;4170153;28;20051;-39
2022/12/04 07:26:16;;;;;;;1.15;0.60;;;28.90;49.20;;;;;;4170301;28;20040;-40
2022/12/04 07:28:40;;;;;;;2.30;0.65;;;28.90;49.40;;;;;;4171446;28;20421;-40
2022/12/04 07:31:12;;;;;;;1.40;0.60;;;28.90;49.40;;;;;;4167464;28;20045;-47
2022/12/04 07:33:35;;;;;;;2.05;0.40;;;28.90;49.50;;;;;;4172272;28;20450;-41
2022/12/04 07:35:59;;;;;;;0.88;0.45;;;28.80;49.50;;;;;;4171505;28;20559;-46
2022/12/04 07:38:22;;;;;;;0.73;0.63;;;28.80;49.60;;;;;;4174370;28;20044;-39
2022/12/04 07:40:44;;;;;;;1.15;0.43;;;28.80;50.00;;;;;;4171680;28;20378;-44
2022/12/04 07:43:07;;;;;;;1.17;0.40;;;28.70;49.70;;;;;;4175915;28;20072;-41
2022/12/04 07:45:29;;;;;;;1.33;0.60;;;28.70;49.80;;;;;;4174016;28;20036;-42
2022/12/04 07:47:52;;;;;;;0.93;0.50;;;28.60;49.80;;;;;;4173597;28;20484;-40
2022/12/04 07:50:15;;;;;;;0.87;0.40;;;28.60;49.90;;;;;;4169795;28;20389;-39
2022/12/04 07:52:38;;;;;;;2.45;0.70;;;28.50;50.00;;;;;;4178214;28;20039;-42
2022/12/04 07:55:01;;;;;;;1.75;0.60;;;28.50;50.00;;;;;;4171590;28;20265;-43
2022/12/04 07:57:23;;;;;;;0.65;0.40;;;28.50;50.10;;;;;;4175857;28;20437;-41
2022/12/04 07:59:46;;;;;;;0.70;0.40;;;28.50;50.10;;;;;;4173894;28;20555;-43
2022/12/04 08:02:08;;;;;;;1.23;0.50;;;28.40;50.10;;;;;;4173248;28;20131;-42
2022/12/04 08:04:31;;;;;;;0.57;0.40;;;28.40;50.20;;;;;;4166977;28;20642;-39
2022/12/04 08:06:53;;;;;;;1.63;0.43;;;28.40;50.20;;;;;;4179251;28;20040;-41
2022/12/04 08:09:16;;;;;;;1.00;0.60;;;28.40;50.20;;;;;;4175626;28;20200;-39
2022/12/04 08:11:39;;;;;;;1.67;0.70;;;28.30;50.20;;;;;;4174708;28;20551;-39
2022/12/04 08:14:03;;;;;;;0.82;0.57;;;28.30;50.30;;;;;;4176441;28;20043;-40
2022/12/04 08:16:27;;;;;;;0.88;0.45;;;28.30;50.30;;;;;;4170357;28;20115;-39
2022/12/04 08:18:49;;;;;;;;;;;28.20;50.30;;;;;;4173243;28;20113;-45
2022/12/04 08:21:14;;;;;;;0.93;0.57;;;28.20;50.40;;;;;;4182534;28;20367;-45
2022/12/04 08:23:37;;;;;;;1.75;0.68;;;28.20;50.40;;;;;;4184459;28;20040;-38
2022/12/04 08:26:00;;;;;;;1.10;0.70;;;28.20;50.50;;;;;;4179018;28;20040;-39
2022/12/04 08:28:22;;;;;;;1.35;0.70;;;28.20;50.50;;;;;;4185952;28;20147;-39
2022/12/04 08:30:45;;;;;;;2.67;1.00;;;28.10;50.50;;;;;;4180412;28;20131;-41
2022/12/04 08:33:08;;;;;;;5.97;0.63;;;28.10;50.40;;;;;;4181058;28;20045;-40
2022/12/04 08:35:30;;;;;;;1.45;0.57;;;28.10;50.40;;;;;;4182023;28;20444;-39
2022/12/04 08:37:53;;;;;;;1.13;0.75;;;28.10;50.30;;;;;;4176204;28;20059;-40
2022/12/04 08:40:16;;;;;;;1.17;0.68;;;28.00;50.30;;;;;;4183836;28;20507;-38
2022/12/04 08:42:38;;;;;;;2.40;0.90;;;28.00;50.30;;;;;;4178193;28;20517;-38
2022/12/04 08:45:01;;;;;;;1.27;0.77;;;28.00;50.30;;;;;;4174718;28;20032;-40
2022/12/04 08:47:24;;;;;;;1.45;0.63;;;28.00;50.40;;;;;;4174887;28;20053;-40
2022/12/04 08:49:46;;;;;;;3.78;1.10;;;28.00;50.40;;;;;;4176287;28;20551;-39
2022/12/04 08:52:09;;;;;;;3.60;1.15;;;28.00;50.50;;;;;;4166738;28;20051;-38
2022/12/04 08:54:31;;;;;;;1.92;0.95;;;27.90;50.40;;;;;;4163881;28;20949;-40
2022/12/04 08:56:54;;;;;;;1.75;0.70;;;27.90;50.40;;;;;;4172197;28;20044;-39
2022/12/04 08:59:16;;;;;;;2.00;0.88;;;27.90;50.40;;;;;;4171685;28;20106;-39
2022/12/04 09:01:39;;;;;;;2.50;0.95;;;27.90;50.50;;;;;;4182058;28;20027;-39
2022/12/04 09:04:02;;;;;;;3.42;1.17;;;27.80;50.40;;;;;;4182041;28;20047;-41
2022/12/04 09:06:25;;;;;;;1.95;0.93;;;27.90;50.50;;;;;;4178262;28;20033;-39
2022/12/04 09:08:48;;;;;;;1.90;0.70;;;27.80;50.50;;;;;;4158296;28;20227;-45
2022/12/04 09:11:16;;;;;;;1.95;0.55;;;27.80;50.50;;;;;;4170796;28;20162;-39
2022/12/04 09:13:39;;;;;;;4.40;0.82;;;27.80;50.50;;;;;;4177967;28;20501;-40
2022/12/04 09:16:08;;;;;;;2.42;0.80;;;27.70;50.50;;;;;;4169097;28;20041;-40
2022/12/04 09:18:31;;;;;;;2.95;0.68;;;27.70;50.50;;;;;;4179081;28;20207;-38
2022/12/04 09:21:02;;;;;;;1.23;0.60;;;27.70;50.60;;;;;;4181794;28;20450;-37
2022/12/04 09:23:26;;;;;;;2.72;1.08;;;27.70;50.60;;;;;;4185518;28;20122;-37
2022/12/04 09:25:48;;;;;;;2.80;1.00;;;27.60;50.50;;;;;;4185947;28;20119;-39
2022/12/04 09:28:11;;;;;;;1.35;0.63;;;27.60;50.60;;;;;;4188818;28;20048;-39
2022/12/04 09:30:33;;;;;;;1.88;0.90;;;27.60;50.60;;;;;;4184764;28;20484;-40
2022/12/04 09:32:56;;;;;;;1.70;0.70;;;27.60;50.70;;;;;;4178452;28;20044;-41
2022/12/04 09:35:19;;;;;;;2.50;0.88;;;27.50;50.70;;;;;;4181072;28;20043;-44
2022/12/04 09:37:41;;;;;;;1.98;0.80;;;27.50;50.70;;;;;;4175647;28;20519;-46
2022/12/04 09:40:05;;;;;;;1.92;0.90;;;27.50;50.80;;;;;;4176741;28;20043;-41
2022/12/04 09:42:54;;;;;;;1.08;0.90;;;27.50;50.80;;;;;;4175306;28;20038;-41
2022/12/04 09:45:21;;;;;;;1.48;0.93;;;27.50;50.90;;;;;;4175814;28;20825;-39
2022/12/04 09:47:55;;;;;;;2.17;0.82;;;27.40;50.80;;;;;;4179912;28;20051;-41
2022/12/04 09:50:53;;;;;;;1.60;0.63;;;27.40;50.90;;;;;;4176245;28;20049;-41
2022/12/04 09:53:26;;;;;;;2.60;1.08;;;27.40;50.90;;;;;;4119429;28;20121;-40
2022/12/04 09:56:04;;;;;;;1.77;0.82;;;27.40;50.90;;;;;;4175784;28;20044;-38
2022/12/04 09:58:40;;;;;;;2.38;1.00;;;27.40;50.90;;;;;;4177430;28;20044;-39
2022/12/04 10:01:03;;;;;;;1.85;1.10;;;27.30;50.90;;;;;;4178286;28;20475;-40
2022/12/04 10:03:29;;;;;;;1.95;0.88;;;27.30;50.90;;;;;;4178969;28;20037;-43
2022/12/04 10:06:18;;;;;;;1.65;0.60;;;27.30;50.90;;;;;;4177118;28;20437;-41
2022/12/04 10:08:44;;;;;;;1.17;0.70;;;27.30;51.00;;;;;;4178895;28;20037;-45
2022/12/04 10:11:27;;;;;;;1.08;0.57;;;27.30;51.10;;;;;;4178184;28;20464;-39
2022/12/04 10:14:22;;;;;;;2.65;0.90;;;27.30;51.10;;;;;;4178013;28;20047;-40
2022/12/04 10:17:22;;;;;;;1.77;0.70;;;27.20;51.10;;;;;;4176273;28;20037;-39
2022/12/04 10:20:10;;;;;;;1.70;0.93;;;27.20;51.20;;;;;;4177412;28;20084;-38
2022/12/04 10:23:17;;;;;;;2.35;0.63;;;27.20;51.20;;;;;;4174748;28;20036;-39
2022/12/04 10:25:40;;;;;;;2.83;1.02;;;27.20;51.20;;;;;;4172126;28;20037;-39
2022/12/04 10:28:26;;;;;;;0.82;0.63;;;27.20;51.30;;;;;;4176566;28;20380;-39
2022/12/04 10:30:53;;;;;;;1.75;1.00;;;27.20;51.40;;;;;;4177902;28;20040;-40
2022/12/04 10:33:18;;;;;;;1.42;0.68;;;27.10;51.30;;;;;;4176552;28;20037;-46
2022/12/04 10:35:44;;;;;;;2.05;0.98;;;27.10;51.40;;;;;;4171548;28;20040;-42
2022/12/04 10:38:32;;;;;;;1.92;0.98;;;27.10;51.40;;;;;;4179108;28;20036;-42
2022/12/04 10:41:21;;;;;;;1.48;0.80;;;27.10;51.50;;;;;;4176612;28;20447;-42
2022/12/04 10:43:48;;;;;;;2.10;1.10;;;27.10;51.50;;;;;;4174214;28;20095;-40
2022/12/04 10:46:15;;;;;;;1.20;0.70;;;27.10;51.60;;;;;;4180907;28;20071;-47
2022/12/04 10:48:39;;;;;;;2.65;0.93;;;27.00;51.50;;;;;;4177655;28;20068;-41
2022/12/04 10:51:02;;;;;;;1.98;0.70;;;27.00;51.60;;;;;;4174223;28;20036;-43
2022/12/04 10:53:31;;;;;;;1.95;0.88;;;27.00;51.70;;;;;;4177828;28;20051;-39
2022/12/04 10:55:53;;;;;;;3.15;1.00;;;27.00;51.70;;;;;;4163447;28;20075;-40
2022/12/04 10:58:19;;;;;;;1.75;0.88;;;26.90;51.70;;;;;;4178849;28;20033;-41
2022/12/04 11:00:44;;;;;;;1.45;0.77;;;27.00;51.80;;;;;;4177160;28;20066;-39
2022/12/04 11:03:24;;;;;;;1.55;0.80;;;26.90;51.80;;;;;;4157588;28;20065;-41
2022/12/04 11:05:55;;;;;;;1.38;0.90;;;26.90;51.80;;;;;;4178893;28;20044;-41
2022/12/04 11:08:24;;;;;;;4.20;1.23;;;26.90;52.60;;;;;;4174618;28;20269;-42
2022/12/04 11:11:02;;;;;;;8.48;1.55;;;26.90;52.80;;;;;;4173685;28;20309;-38
2022/12/04 11:13:25;;;;;;;3.67;0.90;;;26.90;53.00;;;;;;4178848;28;20402;-42
2022/12/04 11:15:50;;;;;;;2.20;0.70;;;26.90;53.30;;;;;;4164065;28;20045;-42
2022/12/04 11:18:19;;;;;;;2.45;0.95;;;27.00;53.40;;;;;;4173836;28;20048;-38
2022/12/04 11:21:13;;;;;;;1.67;0.68;;;27.00;53.60;;;;;;4175253;28;20468;-44
2022/12/04 11:23:44;;;;;;;1.92;0.50;;;27.00;53.70;;;;;;4156731;28;20045;-41
2022/12/04 11:26:07;;;;;;;2.00;0.47;;;27.00;53.80;;;;;;4173857;28;20043;-39
2022/12/04 11:28:31;;;;;;;3.70;0.77;;;27.00;53.90;;;;;;4176324;28;20550;-39
2022/12/04 11:31:00;;;;;;;3.63;0.70;;;27.00;54.00;;;;;;4175117;28;20435;-40
2022/12/04 11:33:49;;;;;;;2.95;0.85;;;27.00;54.10;;;;;;4176842;28;20048;-38
2022/12/04 11:36:22;;;;;;;2.55;0.50;;;27.10;54.20;;;;;;4174255;28;20028;-42
2022/12/04 11:38:45;;;;;;;2.38;0.60;;;27.10;54.20;;;;;;4173242;28;20033;-38
2022/12/04 11:41:30;;;;;;;1.10;0.40;;;27.10;54.20;;;;;;4172604;28;20093;-48
2022/12/04 11:43:52;;;;;;;4.28;0.80;;;27.10;54.20;;;;;;4175382;28;20423;-42
2022/12/04 11:46:25;;;;;;;6.72;0.85;;;27.10;55.00;;;;;;4178589;28;20511;-38
2022/12/04 11:48:48;;;;;;;1.60;0.60;;;27.10;54.30;;;;;;4182164;28;20040;-42
2022/12/04 11:51:34;;;;;;;4.85;0.90;;;27.10;54.50;;;;;;4174377;28;20609;-41
2022/12/04 11:54:29;;;;;;;1.83;0.70;;;27.20;54.50;;;;;;4176113;28;20041;-40
2022/12/04 11:57:15;;;;;;;4.07;0.90;;;27.20;54.60;;;;;;4171307;28;20471;-39
2022/12/04 11:59:41;;;;;;;1.85;0.68;;;27.20;54.80;;;;;;4176819;28;20091;-43
2022/12/04 12:02:16;;;;;;;3.40;0.60;;;27.20;54.90;;;;;;4167789;28;20490;-39
2022/12/04 12:04:58;;;;;;;0.98;0.38;;;27.20;54.90;;;;;;4188100;28;20040;-38
2022/12/04 12:07:44;;;;;;;2.13;0.55;;;27.30;54.80;;;;;;4179252;28;20115;-38
2022/12/04 12:10:23;;;;;;;5.78;0.60;;;27.30;54.70;;;;;;4185333;28;20098;-39
2022/12/04 12:13:04;;;;;;;4.25;0.90;;;27.30;54.40;;;;;;4175017;28;20041;-47
2022/12/04 12:15:39;;;;;;;2.05;0.73;;;27.30;53.20;;;;;;4182700;28;20043;-39
2022/12/04 12:18:22;;;;;;;5.40;1.35;;;27.20;52.60;;;;;;4164975;28;20068;-38
2022/12/04 12:20:48;;;;;;;6.97;1.37;;;27.20;53.20;;;;;;4178399;28;20545;-38
2022/12/04 12:23:16;;;;;;;6.07;1.02;;;27.10;53.90;;;;;;4181727;28;20130;-38
2022/12/04 12:25:53;;;;;;;6.45;1.02;;;27.00;54.30;;;;;;4177515;28;20117;-39
2022/12/04 12:28:39;;;;;;;4.38;1.02;;;26.90;54.70;;;;;;4178021;28;20052;-37
2022/12/04 12:31:20;;;;;;;4.63;1.23;;;26.90;55.10;;;;;;4165493;28;20044;-37
2022/12/04 12:33:58;;;;;;;11.38;1.75;;;26.80;55.30;;;;;;4182260;28;20480;-42
2022/12/04 12:36:22;;;;;;;42.40;4.40;;;26.80;55.70;;;;;;4183464;28;20492;-38
2022/12/04 12:38:54;;;;;;;30.20;4.18;;;26.80;56.20;;;;;;4186145;28;20040;-38
2022/12/04 12:41:36;;;;;;;28.50;3.38;;;26.80;56.20;;;;;;4177904;28;20033;-41
2022/12/04 12:44:10;;;;;;;24.52;3.05;;;26.70;56.30;;;;;;4180441;28;20047;-39
2022/12/04 12:46:47;;;;;;;17.83;2.58;;;26.70;56.20;;;;;;4185514;28;20553;-38
2022/12/04 12:49:45;;;;;;;20.50;2.70;;;26.70;56.30;;;;;;4185576;28;20053;-37
2022/12/04 12:52:32;;;;;;;8.90;1.75;;;26.70;56.30;;;;;;4183965;28;20067;-41
2022/12/04 12:54:57;;;;;;;10.60;1.98;;;26.70;56.30;;;;;;4182964;28;20082;-38
2022/12/04 12:57:36;;;;;;;8.75;1.58;;;26.70;56.20;;;;;;4174284;28;20040;-37
2022/12/04 13:00:16;;;;;;;6.68;1.08;;;26.70;56.20;;;;;;4184990;28;20032;-37
2022/12/04 13:02:44;;;;;;;8.27;0.98;;;26.70;56.20;;;;;;4186056;28;20040;-38
2022/12/04 13:05:10;;;;;;;4.28;1.10;;;26.70;56.20;;;;;;4183736;28;20099;-39
2022/12/04 13:07:58;;;;;;;3.83;1.30;;;26.70;56.20;;;;;;4187985;28;20036;-38
2022/12/04 13:10:24;;;;;;;5.03;0.70;;;26.70;56.30;;;;;;4190173;28;20062;-37